createdAt,value
2022-09-18T00:01:02.089Z,0.70
2022-09-18T00:03:28.875Z,0.77
2022-09-18T00:05:55.331Z,0.73
2022-09-18T00:08:21.805Z,0.70
2022-09-18T00:10:48.419Z,1.48
2022-09-18T00:13:15.595Z,0.82
2022-09-18T00:15:42.129Z,0.82
2022-09-18T00:18:09.127Z,0.82
2022-09-18T00:20:36.153Z,0.93
2022-09-18T00:23:02.859Z,0.60
2022-09-18T00:25:29.700Z,0.77
2022-09-18T00:27:56.201Z,0.68
2022-09-18T00:30:22.745Z,1.40
2022-09-18T00:32:49.179Z,0.80
2022-09-18T00:35:15.739Z,0.75
2022-09-18T00:37:42.226Z,0.55
2022-09-18T00:40:09.114Z,0.70
2022-09-18T00:42:35.614Z,0.57
2022-09-18T00:45:03.211Z,0.50
2022-09-18T00:47:29.631Z,0.70
2022-09-18T00:49:56.101Z,0.50
2022-09-18T00:52:25.767Z,0.70
2022-09-18T00:54:55.807Z,0.60
2022-09-18T00:57:28.773Z,0.65
2022-09-18T00:59:55.502Z,0.70
2022-09-18T01:02:22.068Z,0.60
2022-09-18T01:04:49.427Z,0.95
2022-09-18T01:07:39.787Z,0.88
2022-09-18T01:10:06.259Z,0.50
2022-09-18T01:12:43.692Z,0.77
2022-09-18T01:15:16.229Z,0.50
2022-09-18T01:17:51.905Z,0.60
2022-09-18T01:20:18.376Z,0.60
2022-09-18T01:22:44.854Z,0.32
2022-09-18T01:25:26.691Z,0.52
2022-09-18T01:28:11.642Z,0.60
2022-09-18T01:30:41.056Z,0.73
2022-09-18T01:33:12.706Z,0.60
2022-09-18T01:35:43.107Z,0.60
2022-09-18T01:38:25.431Z,0.63
2022-09-18T01:40:55.328Z,0.40
2022-09-18T01:43:23.742Z,0.77
2022-09-18T01:45:52.719Z,0.50
2022-09-18T01:48:26.897Z,0.32
2022-09-18T01:50:55.485Z,0.40
2022-09-18T01:53:24.435Z,0.50
2022-09-18T01:55:54.180Z,0.40
2022-09-18T01:58:22.768Z,0.50
2022-09-18T02:00:51.783Z,1.00
2022-09-18T02:03:36.243Z,0.47
2022-09-18T02:06:23.011Z,0.50
2022-09-18T02:08:54.397Z,0.40
2022-09-18T02:11:21.489Z,0.38
2022-09-18T02:13:47.935Z,0.70
2022-09-18T02:16:23.887Z,0.73
2022-09-18T02:18:53.059Z,0.40
2022-09-18T02:21:22.924Z,0.60
2022-09-18T02:23:50.004Z,0.77
2022-09-18T02:26:17.239Z,0.38
2022-09-18T02:28:44.391Z,0.40
2022-09-18T02:31:13.086Z,0.55
2022-09-18T02:33:39.959Z,0.55
2022-09-18T02:36:09.541Z,0.55
2022-09-18T02:38:40.373Z,0.55
2022-09-18T02:41:06.811Z,0.55
2022-09-18T02:43:39.011Z,0.47
2022-09-18T02:46:18.008Z,0.60
2022-09-18T02:48:50.400Z,0.70
2022-09-18T02:51:35.817Z,0.60
2022-09-18T02:54:02.269Z,1.27
2022-09-18T02:56:48.766Z,0.60
2022-09-18T02:59:21.619Z,0.50
2022-09-18T03:01:48.576Z,0.60
2022-09-18T03:04:19.205Z,0.70
2022-09-18T03:06:45.726Z,0.60
2022-09-18T03:09:12.196Z,0.43
2022-09-18T03:11:38.660Z,0.65
2022-09-18T03:14:05.165Z,0.57
2022-09-18T03:16:31.720Z,0.40
2022-09-18T03:19:01.459Z,0.47
2022-09-18T03:21:28.119Z,0.82
2022-09-18T03:23:54.671Z,0.73
2022-09-18T03:26:21.572Z,0.65
2022-09-18T03:28:48.379Z,0.68
2022-09-18T03:31:15.086Z,0.50
2022-09-18T03:33:41.624Z,1.02
2022-09-18T03:36:10.979Z,0.88
2022-09-18T03:38:41.091Z,0.85
2022-09-18T03:41:07.695Z,0.90
2022-09-18T03:43:34.510Z,0.63
2022-09-18T03:46:01.444Z,0.75
2022-09-18T03:48:28.449Z,0.90
2022-09-18T03:50:54.987Z,1.40
2022-09-18T03:53:21.735Z,0.85
2022-09-18T03:55:49.891Z,0.70
2022-09-18T03:58:16.447Z,0.50
2022-09-18T04:00:42.912Z,0.73
2022-09-18T04:03:09.615Z,0.95
2022-09-18T04:05:36.238Z,0.70
2022-09-18T04:08:02.905Z,1.10
2022-09-18T04:10:29.343Z,0.75
2022-09-18T04:12:55.792Z,0.70
2022-09-18T04:15:22.266Z,0.85
2022-09-18T04:17:48.882Z,1.17
2022-09-18T04:20:15.399Z,0.75
2022-09-18T04:22:41.886Z,0.60
2022-09-18T04:25:08.747Z,0.90
2022-09-18T04:27:36.394Z,0.70
2022-09-18T04:30:03.204Z,0.90
2022-09-18T04:32:29.735Z,0.93
2022-09-18T04:34:56.212Z,0.60
2022-09-18T04:37:22.694Z,0.80
2022-09-18T04:39:49.171Z,0.40
2022-09-18T04:42:15.683Z,0.50
2022-09-18T04:44:42.506Z,0.70
2022-09-18T04:47:09.069Z,0.50
2022-09-18T04:49:35.517Z,0.40
2022-09-18T04:52:02.215Z,0.52
2022-09-18T04:54:28.703Z,1.17
2022-09-18T04:56:55.195Z,0.80
2022-09-18T04:59:21.667Z,0.50
2022-09-18T05:01:48.393Z,0.40
2022-09-18T05:04:15.032Z,0.38
2022-09-18T05:06:41.827Z,0.30
2022-09-18T05:09:08.332Z,0.47
2022-09-18T05:11:34.804Z,0.30
2022-09-18T05:14:01.311Z,0.68
2022-09-18T05:16:27.909Z,0.50
2022-09-18T05:18:54.459Z,0.50
2022-09-18T05:21:21.004Z,0.30
2022-09-18T05:23:48.103Z,0.43
2022-09-18T05:26:14.888Z,0.47
2022-09-18T05:28:41.584Z,0.40
2022-09-18T05:31:08.129Z,0.50
2022-09-18T05:33:34.716Z,0.25
2022-09-18T05:36:01.312Z,0.32
2022-09-18T05:38:27.887Z,0.40
2022-09-18T05:40:54.409Z,0.30
2022-09-18T05:43:20.871Z,0.25
2022-09-18T05:45:47.333Z,0.30
2022-09-18T05:48:13.862Z,0.38
2022-09-18T05:50:40.401Z,0.50
2022-09-18T05:53:08.186Z,0.43
2022-09-18T05:55:34.949Z,0.32
2022-09-18T05:58:01.994Z,0.63
2022-09-18T06:00:29.601Z,0.30
2022-09-18T06:03:00.476Z,0.52
2022-09-18T06:05:28.021Z,0.80
2022-09-18T06:07:59.516Z,0.57
2022-09-18T06:10:26.792Z,1.52
2022-09-18T06:13:13.994Z,0.90
2022-09-18T06:15:40.460Z,0.68
2022-09-18T06:18:09.274Z,0.40
2022-09-18T06:20:35.952Z,0.82
2022-09-18T06:23:02.732Z,0.82
2022-09-18T06:25:29.943Z,0.50
2022-09-18T06:27:58.903Z,0.73
2022-09-18T06:30:26.355Z,0.60
2022-09-18T06:32:53.240Z,0.50
2022-09-18T06:35:20.154Z,0.50
2022-09-18T06:37:46.620Z,0.60
2022-09-18T06:40:13.223Z,0.52
2022-09-18T06:42:45.279Z,0.55
2022-09-18T06:45:12.539Z,1.00
2022-09-18T06:47:38.999Z,0.85
2022-09-18T06:50:06.818Z,0.90
2022-09-18T06:52:33.349Z,0.50
2022-09-18T06:54:59.839Z,0.30
2022-09-18T06:57:26.330Z,0.60
2022-09-18T06:59:52.996Z,0.45
2022-09-18T07:02:19.862Z,0.60
2022-09-18T07:04:46.986Z,0.70
2022-09-18T07:07:13.566Z,0.60
2022-09-18T07:09:40.037Z,0.80
2022-09-18T07:12:06.876Z,1.25
2022-09-18T07:14:33.454Z,0.88
2022-09-18T07:17:00.218Z,0.50
2022-09-18T07:19:26.750Z,0.50
2022-09-18T07:21:53.232Z,0.50
2022-09-18T07:24:19.848Z,0.45
2022-09-18T07:26:46.365Z,0.60
2022-09-18T07:29:12.867Z,0.47
2022-09-18T07:31:39.402Z,0.60
2022-09-18T07:34:07.327Z,0.57
2022-09-18T07:36:34.275Z,0.60
2022-09-18T07:39:00.821Z,0.70
2022-09-18T07:41:27.294Z,1.02
2022-09-18T07:43:53.814Z,1.10
2022-09-18T07:46:20.547Z,1.25
2022-09-18T07:48:47.274Z,0.80
2022-09-18T07:51:13.767Z,0.70
2022-09-18T07:53:41.266Z,1.23
2022-09-18T07:56:11.849Z,0.82
2022-09-18T07:58:38.430Z,0.80
2022-09-18T08:01:05.632Z,0.70
2022-09-18T08:03:32.281Z,0.68
2022-09-18T08:05:58.772Z,0.57
2022-09-18T08:08:25.418Z,1.00
2022-09-18T08:10:51.876Z,1.27
2022-09-18T08:13:18.314Z,1.17
2022-09-18T08:15:44.869Z,1.70
2022-09-18T08:18:11.718Z,1.13
2022-09-18T08:20:38.433Z,1.00
2022-09-18T08:23:06.645Z,0.93
2022-09-18T08:25:33.844Z,1.45
2022-09-18T08:28:02.031Z,1.23
2022-09-18T08:30:29.549Z,1.00
2022-09-18T08:33:00.253Z,1.10
2022-09-18T08:35:26.863Z,0.80
2022-09-18T08:37:53.395Z,1.35
2022-09-18T08:40:22.272Z,0.90
2022-09-18T08:42:51.936Z,1.10
2022-09-18T08:45:18.401Z,1.17
2022-09-18T08:47:48.846Z,1.00
2022-09-18T08:50:19.177Z,2.65
2022-09-18T08:52:48.501Z,1.25
2022-09-18T08:55:18.103Z,1.17
2022-09-18T08:57:49.653Z,1.40
2022-09-18T09:00:20.680Z,1.83
2022-09-18T09:03:10.252Z,1.77
2022-09-18T09:05:48.033Z,1.40
2022-09-18T09:08:23.899Z,1.15
2022-09-18T09:10:56.055Z,1.05
2022-09-18T09:13:22.553Z,1.00
2022-09-18T09:16:28.392Z,0.82
2022-09-18T09:19:02.119Z,1.23
2022-09-18T09:21:57.511Z,1.00
2022-09-18T09:24:31.816Z,0.90
2022-09-18T09:26:59.240Z,0.98
2022-09-18T09:29:31.024Z,1.45
2022-09-18T09:32:07.855Z,0.95
2022-09-18T09:34:37.616Z,0.98
2022-09-18T09:37:06.567Z,1.30
2022-09-18T09:39:39.711Z,1.27
2022-09-18T09:42:12.426Z,0.98
2022-09-18T09:44:45.246Z,1.30
2022-09-18T09:47:34.033Z,0.73
2022-09-18T09:50:20.814Z,1.10
2022-09-18T09:52:47.387Z,0.95
2022-09-18T09:55:13.844Z,1.27
2022-09-18T09:58:03.914Z,1.85
2022-09-18T10:00:35.631Z,1.17
2022-09-18T10:03:11.278Z,1.00
2022-09-18T10:05:43.947Z,1.40
2022-09-18T10:08:15.522Z,0.88
2022-09-18T10:10:51.627Z,1.15
2022-09-18T10:13:18.101Z,1.20
2022-09-18T10:15:46.010Z,0.88
2022-09-18T10:18:18.260Z,0.90
2022-09-18T10:20:46.723Z,1.20
2022-09-18T10:23:20.666Z,0.95
2022-09-18T10:28:14.286Z,1.05
2022-09-18T10:31:12.980Z,0.85
2022-09-18T10:33:46.528Z,0.90
2022-09-18T10:36:24.209Z,1.00
2022-09-18T10:38:50.846Z,0.88
2022-09-18T10:41:26.650Z,1.38
2022-09-18T10:43:59.339Z,0.90
2022-09-18T10:46:27.145Z,0.82
2022-09-18T10:48:53.866Z,0.90
2022-09-18T10:51:21.761Z,1.00
2022-09-18T10:54:07.141Z,1.85
2022-09-18T10:56:33.743Z,1.00
2022-09-18T10:59:18.947Z,1.00
2022-09-18T11:01:45.472Z,0.90
2022-09-18T11:04:17.011Z,1.23
2022-09-18T11:06:44.617Z,1.20
2022-09-18T11:09:11.336Z,0.70
2022-09-18T11:11:39.209Z,0.70
2022-09-18T11:14:06.968Z,1.50
2022-09-18T11:16:36.898Z,0.93
2022-09-18T11:19:07.528Z,1.48
2022-09-18T11:21:41.523Z,1.35
2022-09-18T11:24:16.367Z,1.48
2022-09-18T11:26:49.343Z,0.98
2022-09-18T11:29:28.033Z,1.65
2022-09-18T11:31:57.671Z,1.08
2022-09-18T11:34:37.110Z,0.98
2022-09-18T11:37:07.399Z,1.02
2022-09-18T11:39:36.667Z,0.80
2022-09-18T11:42:07.827Z,1.00
2022-09-18T11:44:34.581Z,1.55
2022-09-18T11:47:19.510Z,1.25
2022-09-18T11:49:49.235Z,1.10
2022-09-18T11:52:18.521Z,1.90
2022-09-18T11:54:52.039Z,1.15
2022-09-18T11:57:25.099Z,1.23
2022-09-18T12:00:11.171Z,0.90
2022-09-18T12:02:45.026Z,0.88
2022-09-18T12:07:55.058Z,1.30
2022-09-18T12:10:30.681Z,1.17
2022-09-18T12:13:15.502Z,1.00
2022-09-18T12:15:45.487Z,0.93
2022-09-18T12:18:11.899Z,0.88
2022-09-18T12:20:41.575Z,1.25
2022-09-18T12:23:12.351Z,1.17
2022-09-18T12:25:50.993Z,1.17
2022-09-18T12:28:36.134Z,1.77
2022-09-18T12:31:21.469Z,1.63
2022-09-18T12:33:58.452Z,0.90
2022-09-18T12:36:40.346Z,0.80
2022-09-18T12:39:16.637Z,1.08
2022-09-18T12:41:47.394Z,0.80
2022-09-18T12:44:24.801Z,1.02
2022-09-18T12:47:00.647Z,0.95
2022-09-18T12:49:38.040Z,0.85
2022-09-18T12:52:27.872Z,1.38
2022-09-18T12:55:13.370Z,1.80
2022-09-18T12:57:43.028Z,0.82
2022-09-18T13:00:14.134Z,0.70
2022-09-18T13:02:52.751Z,0.93
2022-09-18T13:05:22.398Z,1.13
2022-09-18T13:07:51.978Z,1.00
2022-09-18T13:10:27.288Z,0.70
2022-09-18T13:12:57.940Z,1.17
2022-09-18T13:15:24.423Z,0.80
2022-09-18T13:17:54.639Z,0.93
2022-09-18T13:20:23.969Z,1.17
2022-09-18T13:22:53.278Z,0.85
2022-09-18T13:25:32.990Z,0.80
2022-09-18T13:28:00.891Z,0.98
2022-09-18T13:30:29.086Z,1.15
2022-09-18T13:32:57.206Z,0.70
2022-09-18T13:35:29.019Z,1.02
2022-09-18T13:38:04.791Z,0.75
2022-09-18T13:40:54.308Z,0.70
2022-09-18T13:46:28.759Z,0.63
2022-09-18T13:48:56.882Z,0.93
2022-09-18T13:51:28.582Z,0.52
2022-09-18T13:54:17.285Z,0.80
2022-09-18T13:57:10.923Z,0.90
2022-09-18T13:59:46.643Z,1.40
2022-09-18T14:02:22.502Z,0.60
2022-09-18T14:04:50.618Z,0.63
2022-09-18T14:07:17.166Z,0.57
2022-09-18T14:10:03.065Z,0.90
2022-09-18T14:12:32.565Z,0.80
2022-09-18T14:15:01.973Z,0.95
2022-09-18T14:17:29.583Z,0.90
2022-09-18T14:20:05.496Z,0.65
2022-09-18T14:22:34.457Z,0.60
2022-09-18T14:25:03.316Z,0.70
2022-09-18T14:27:42.187Z,0.80
2022-09-18T14:30:19.936Z,0.60
2022-09-18T14:33:12.747Z,0.60
2022-09-18T14:35:45.442Z,0.70
2022-09-18T14:38:16.263Z,0.60
2022-09-18T14:40:48.528Z,0.70
2022-09-18T14:43:16.546Z,0.60
2022-09-18T14:45:43.138Z,0.85
2022-09-18T14:48:29.935Z,0.65
2022-09-18T14:51:00.889Z,0.57
2022-09-18T14:53:28.411Z,0.80
2022-09-18T14:55:57.526Z,1.25
2022-09-18T14:58:25.657Z,0.77
2022-09-18T15:00:56.577Z,0.80
2022-09-18T15:03:34.450Z,0.82
2022-09-18T15:06:18.813Z,0.90
2022-09-18T15:08:47.480Z,0.70
2022-09-18T15:11:14.680Z,0.55
2022-09-18T15:13:42.367Z,0.85
2022-09-18T15:16:18.419Z,0.70
2022-09-18T15:18:45.422Z,1.38
2022-09-18T15:21:33.560Z,0.80
2022-09-18T15:24:02.346Z,1.00
2022-09-18T15:26:43.702Z,0.60
2022-09-18T15:29:20.505Z,0.80
2022-09-18T15:31:47.191Z,1.08
2022-09-18T15:34:21.460Z,0.95
2022-09-18T15:36:54.438Z,0.73
2022-09-18T15:39:29.179Z,0.65
2022-09-18T15:41:57.204Z,0.73
2022-09-18T15:44:26.935Z,1.00
2022-09-18T15:46:53.600Z,0.85
2022-09-18T15:49:27.345Z,0.93
2022-09-18T15:51:54.375Z,0.50
2022-09-18T15:54:25.693Z,0.73
2022-09-18T15:56:59.317Z,0.63
2022-09-18T15:59:36.847Z,0.65
2022-09-18T16:02:10.437Z,0.85
2022-09-18T16:04:37.004Z,0.57
2022-09-18T16:07:05.070Z,0.40
2022-09-18T16:09:37.691Z,0.63
2022-09-18T16:12:24.130Z,0.88
2022-09-18T16:14:56.607Z,0.70
2022-09-18T16:17:29.370Z,0.60
2022-09-18T16:19:56.992Z,2.53
2022-09-18T16:22:24.185Z,1.65
2022-09-18T16:24:50.673Z,0.88
2022-09-18T16:27:18.182Z,3.28
2022-09-18T16:29:44.690Z,2.20
2022-09-18T16:32:12.070Z,1.55
2022-09-18T16:34:38.582Z,1.42
2022-09-18T16:42:17.130Z,0.75
2022-09-18T16:44:43.887Z,2.22
2022-09-18T16:47:12.556Z,1.58
2022-09-18T16:49:42.715Z,1.30
2022-09-18T16:52:09.870Z,2.17
2022-09-18T16:54:39.449Z,1.80
2022-09-18T16:57:10.270Z,1.88
2022-09-18T16:59:37.920Z,1.40
2022-09-18T17:02:05.289Z,1.40
2022-09-18T17:04:34.851Z,1.88
2022-09-18T17:07:01.619Z,1.63
2022-09-18T17:09:28.449Z,1.27
2022-09-18T17:11:55.460Z,1.77
2022-09-18T17:14:22.463Z,2.40
2022-09-18T17:16:49.042Z,2.70
2022-09-18T17:19:15.781Z,3.58
2022-09-18T17:21:42.385Z,3.22
2022-09-18T17:24:09.537Z,3.10
2022-09-18T17:26:36.608Z,3.25
2022-09-18T17:29:03.651Z,3.05
2022-09-18T17:31:30.344Z,3.40
2022-09-18T17:33:57.250Z,3.25
2022-09-18T17:36:23.807Z,3.13
2022-09-18T17:38:52.829Z,1.55
2022-09-18T17:41:20.948Z,1.48
2022-09-18T17:43:51.950Z,1.80
2022-09-18T17:46:18.738Z,0.60
2022-09-18T17:48:45.736Z,0.73
2022-09-18T17:51:15.410Z,0.60
2022-09-18T17:53:42.766Z,1.15
2022-09-18T17:56:09.981Z,0.60
2022-09-18T17:58:40.309Z,0.70
2022-09-18T18:01:15.951Z,1.35
2022-09-18T18:03:42.520Z,1.00
2022-09-18T18:06:11.077Z,1.05
2022-09-18T18:08:38.123Z,1.05
2022-09-18T18:11:06.974Z,0.82
2022-09-18T18:13:35.405Z,0.80
2022-09-18T18:16:05.871Z,2.28
2022-09-18T18:18:32.551Z,0.90
2022-09-18T18:20:59.064Z,1.13
2022-09-18T18:23:25.621Z,2.25
2022-09-18T18:25:52.119Z,4.07
2022-09-18T18:28:18.603Z,3.95
2022-09-18T18:30:47.797Z,4.47
2022-09-18T18:33:14.830Z,6.30
2022-09-18T18:35:41.304Z,4.07
2022-09-18T18:38:07.758Z,3.03
2022-09-18T18:40:34.852Z,2.30
2022-09-18T18:43:01.604Z,2.05
2022-09-18T18:45:28.080Z,2.15
2022-09-18T18:47:55.932Z,1.80
2022-09-18T18:50:22.646Z,1.63
2022-09-18T18:52:49.351Z,1.60
2022-09-18T18:55:15.886Z,1.10
2022-09-18T18:57:42.371Z,1.45
2022-09-18T19:00:09.256Z,1.20
2022-09-18T19:02:36.065Z,1.92
2022-09-18T19:07:34.112Z,2.97
2022-09-18T19:10:01.907Z,3.90
2022-09-18T19:12:28.595Z,3.65
2022-09-18T19:14:55.201Z,3.15
2022-09-18T19:17:21.968Z,2.22
2022-09-18T19:19:48.712Z,1.83
2022-09-18T19:22:18.972Z,1.45
2022-09-18T19:24:45.581Z,1.75
2022-09-18T19:27:12.577Z,1.30
2022-09-18T19:29:39.192Z,1.38
2022-09-18T19:32:06.493Z,1.23
2022-09-18T19:34:33.492Z,1.65
2022-09-18T19:37:00.212Z,1.63
2022-09-18T19:39:27.161Z,1.70
2022-09-18T19:42:09.888Z,2.97
2022-09-18T19:44:36.410Z,1.92
2022-09-18T19:47:29.451Z,2.28
2022-09-18T19:49:56.898Z,1.65
2022-09-18T19:52:24.363Z,1.23
2022-09-18T19:54:51.715Z,1.60
2022-09-18T19:57:18.868Z,1.20
2022-09-18T19:59:47.204Z,2.28
2022-09-18T20:02:14.921Z,1.80
2022-09-18T20:04:41.455Z,1.52
2022-09-18T20:07:08.733Z,1.50
2022-09-18T20:09:35.286Z,2.00
2022-09-18T20:12:02.095Z,2.30
2022-09-18T20:14:28.987Z,3.17
2022-09-18T20:16:55.829Z,1.73
2022-09-18T20:19:23.290Z,2.00
2022-09-18T20:21:50.473Z,1.80
2022-09-18T20:24:17.350Z,2.13
2022-09-18T20:26:44.159Z,2.35
2022-09-18T20:29:15.829Z,2.10
2022-09-18T20:31:43.209Z,1.98
2022-09-18T20:34:11.189Z,2.17
2022-09-18T20:36:38.358Z,1.83
2022-09-18T20:39:05.469Z,1.90
2022-09-18T20:41:32.099Z,2.03
2022-09-18T20:44:05.139Z,1.83
2022-09-18T20:46:35.266Z,1.77
2022-09-18T20:49:04.019Z,1.95
2022-09-18T20:51:32.875Z,1.45
2022-09-18T20:53:59.345Z,1.50
2022-09-18T20:56:26.891Z,1.65
2022-09-18T20:58:54.631Z,0.90
2022-09-18T21:01:22.327Z,1.13
2022-09-18T21:03:52.647Z,1.98
2022-09-18T21:06:23.095Z,1.25
2022-09-18T21:08:51.010Z,1.40
2022-09-18T21:11:18.647Z,1.30
2022-09-18T21:13:48.701Z,1.77
2022-09-18T21:16:15.889Z,1.50
2022-09-18T21:18:43.430Z,1.58
2022-09-18T21:21:12.375Z,1.35
2022-09-18T21:23:58.792Z,1.20
2022-09-18T21:26:26.976Z,0.90
2022-09-18T21:28:54.776Z,1.08
2022-09-18T21:31:21.953Z,1.15
2022-09-18T21:33:48.724Z,1.55
2022-09-18T21:36:15.230Z,1.63
2022-09-18T21:38:42.437Z,1.27
2022-09-18T21:41:14.508Z,1.17
2022-09-18T21:43:41.607Z,1.08
2022-09-18T21:46:11.308Z,1.10
2022-09-18T21:48:41.763Z,2.28
2022-09-18T21:51:09.650Z,1.38
2022-09-18T21:53:37.239Z,1.15
2022-09-18T21:56:05.859Z,1.40
2022-09-18T21:58:32.828Z,3.00
2022-09-18T22:00:59.420Z,3.28
2022-09-18T22:03:25.994Z,3.20
2022-09-18T22:05:53.066Z,2.92
2022-09-18T22:08:19.639Z,2.25
2022-09-18T22:10:46.122Z,3.40
2022-09-18T22:13:12.635Z,4.85
2022-09-18T22:15:39.131Z,4.60
2022-09-18T22:18:05.633Z,3.13
2022-09-18T22:20:34.815Z,1.98
2022-09-18T22:23:01.274Z,2.78
2022-09-18T22:25:27.785Z,3.28
2022-09-18T22:27:54.241Z,2.60
2022-09-18T22:30:21.307Z,1.75
2022-09-18T22:32:47.803Z,1.90
2022-09-18T22:35:14.704Z,1.33
2022-09-18T22:37:41.195Z,1.58
2022-09-18T22:40:08.263Z,2.03
2022-09-18T22:42:34.887Z,1.52
2022-09-18T22:45:01.735Z,1.10
2022-09-18T22:47:28.547Z,1.10
2022-09-18T22:49:55.746Z,1.00
2022-09-18T22:52:22.327Z,1.25
2022-09-18T22:54:48.899Z,1.00
2022-09-18T22:57:15.394Z,1.40
2022-09-18T22:59:41.887Z,1.15
2022-09-18T23:02:08.495Z,1.10
2022-09-18T23:04:35.281Z,1.23
2022-09-18T23:07:01.992Z,0.93
2022-09-18T23:09:28.692Z,1.10
2022-09-18T23:11:55.822Z,1.30
2022-09-18T23:14:23.874Z,1.38
2022-09-18T23:16:51.050Z,0.80
2022-09-18T23:19:19.804Z,1.02
2022-09-18T23:21:46.403Z,1.10
2022-09-18T23:24:13.140Z,1.10
2022-09-18T23:26:41.324Z,1.00
2022-09-18T23:29:09.223Z,1.30
2022-09-18T23:31:40.023Z,0.77
2022-09-18T23:34:08.575Z,0.75
2022-09-18T23:36:36.560Z,1.20
2022-09-18T23:39:06.598Z,1.27
2022-09-18T23:41:34.645Z,1.10
2022-09-18T23:44:05.452Z,1.27
2022-09-18T23:46:32.884Z,1.13
2022-09-18T23:48:59.833Z,1.40
2022-09-18T23:51:30.869Z,1.50
2022-09-18T23:53:58.334Z,1.38
2022-09-18T23:56:25.058Z,1.33
2022-09-18T23:58:56.137Z,1.25
